sensor_id;sensor_type;location;lat;lon;timestamp;temperature;humidity
947;DHT22;460;48.734;9.152;2022-07-24T00:02:14;20.40;96.70
947;DHT22;460;48.734;9.152;2022-07-24T00:04:41;20.40;96.80
947;DHT22;460;48.734;9.152;2022-07-24T00:07:08;20.40;97.60
947;DHT22;460;48.734;9.152;2022-07-24T00:09:35;20.40;96.80
947;DHT22;460;48.734;9.152;2022-07-24T00:12:06;20.30;97.30
947;DHT22;460;48.734;9.152;2022-07-24T00:14:35;20.30;97.90
947;DHT22;460;48.734;9.152;2022-07-24T00:17:04;20.30;98.10
947;DHT22;460;48.734;9.152;2022-07-24T00:19:32;20.20;97.40
947;DHT22;460;48.734;9.152;2022-07-24T00:22:00;20.20;97.40
947;DHT22;460;48.734;9.152;2022-07-24T00:24:29;20.30;97.90
947;DHT22;460;48.734;9.152;2022-07-24T00:26:56;20.20;98.20
947;DHT22;460;48.734;9.152;2022-07-24T00:29:23;20.10;98.10
947;DHT22;460;48.734;9.152;2022-07-24T00:31:51;20.20;98.00
947;DHT22;460;48.734;9.152;2022-07-24T00:34:19;20.10;98.30
947;DHT22;460;48.734;9.152;2022-07-24T00:36:47;20.00;98.40
947;DHT22;460;48.734;9.152;2022-07-24T00:39:15;20.00;98.90
947;DHT22;460;48.734;9.152;2022-07-24T00:41:42;19.90;98.60
947;DHT22;460;48.734;9.152;2022-07-24T00:44:12;19.90;99.20
947;DHT22;460;48.734;9.152;2022-07-24T00:46:41;19.80;99.10
947;DHT22;460;48.734;9.152;2022-07-24T00:49:11;19.80;99.60
947;DHT22;460;48.734;9.152;2022-07-24T00:51:42;19.90;99.10
947;DHT22;460;48.734;9.152;2022-07-24T00:54:11;19.90;99.20
947;DHT22;460;48.734;9.152;2022-07-24T00:56:41;19.90;99.00
947;DHT22;460;48.734;9.152;2022-07-24T00:59:09;19.90;99.00
947;DHT22;460;48.734;9.152;2022-07-24T01:01:36;19.80;98.10
947;DHT22;460;48.734;9.152;2022-07-24T01:04:04;19.90;98.20
947;DHT22;460;48.734;9.152;2022-07-24T01:06:31;19.90;97.90
947;DHT22;460;48.734;9.152;2022-07-24T01:09:00;19.90;97.90
947;DHT22;460;48.734;9.152;2022-07-24T01:11:27;19.90;98.00
947;DHT22;460;48.734;9.152;2022-07-24T01:13:55;19.80;99.00
947;DHT22;460;48.734;9.152;2022-07-24T01:16:22;19.70;99.20
947;DHT22;460;48.734;9.152;2022-07-24T01:18:51;19.70;99.40
947;DHT22;460;48.734;9.152;2022-07-24T01:21:22;19.70;99.00
947;DHT22;460;48.734;9.152;2022-07-24T01:23:51;19.70;99.40
947;DHT22;460;48.734;9.152;2022-07-24T01:26:18;19.60;99.10
947;DHT22;460;48.734;9.152;2022-07-24T01:28:46;19.60;99.30
947;DHT22;460;48.734;9.152;2022-07-24T01:31:14;19.50;99.40
947;DHT22;460;48.734;9.152;2022-07-24T01:33:41;19.50;99.70
947;DHT22;460;48.734;9.152;2022-07-24T01:36:09;19.50;99.90
947;DHT22;460;48.734;9.152;2022-07-24T01:38:39;19.40;99.50
947;DHT22;460;48.734;9.152;2022-07-24T01:41:06;19.40;99.50
947;DHT22;460;48.734;9.152;2022-07-24T01:43:34;19.40;99.70
947;DHT22;460;48.734;9.152;2022-07-24T01:46:02;19.30;99.30
947;DHT22;460;48.734;9.152;2022-07-24T01:48:30;19.40;99.70
947;DHT22;460;48.734;9.152;2022-07-24T01:50:58;19.40;99.50
947;DHT22;460;48.734;9.152;2022-07-24T01:53:26;19.50;99.10
947;DHT22;460;48.734;9.152;2022-07-24T01:55:54;19.50;99.20
947;DHT22;460;48.734;9.152;2022-07-24T01:58:22;19.50;98.80
947;DHT22;460;48.734;9.152;2022-07-24T02:00:49;19.40;99.00
947;DHT22;460;48.734;9.152;2022-07-24T02:03:16;19.40;99.40
947;DHT22;460;48.734;9.152;2022-07-24T02:05:43;19.20;99.30
947;DHT22;460;48.734;9.152;2022-07-24T02:08:10;19.20;99.30
947;DHT22;460;48.734;9.152;2022-07-24T02:10:37;19.30;99.00
947;DHT22;460;48.734;9.152;2022-07-24T02:13:06;19.30;98.60
947;DHT22;460;48.734;9.152;2022-07-24T02:15:33;19.30;98.40
947;DHT22;460;48.734;9.152;2022-07-24T02:18:06;19.30;98.70
947;DHT22;460;48.734;9.152;2022-07-24T02:20:33;19.30;99.10
947;DHT22;460;48.734;9.152;2022-07-24T02:23:00;19.30;99.20
947;DHT22;460;48.734;9.152;2022-07-24T02:25:27;19.40;98.80
947;DHT22;460;48.734;9.152;2022-07-24T02:27:54;19.30;98.50
947;DHT22;460;48.734;9.152;2022-07-24T02:30:23;19.30;98.20
947;DHT22;460;48.734;9.152;2022-07-24T02:32:51;19.40;98.70
947;DHT22;460;48.734;9.152;2022-07-24T02:35:18;19.30;98.70
947;DHT22;460;48.734;9.152;2022-07-24T02:37:45;19.20;99.20
947;DHT22;460;48.734;9.152;2022-07-24T02:40:14;19.10;99.30
947;DHT22;460;48.734;9.152;2022-07-24T02:42:41;19.10;99.90
947;DHT22;460;48.734;9.152;2022-07-24T02:45:09;19.00;99.90
947;DHT22;460;48.734;9.152;2022-07-24T02:47:46;18.90;99.90
947;DHT22;460;48.734;9.152;2022-07-24T02:50:13;18.90;99.90
947;DHT22;460;48.734;9.152;2022-07-24T02:52:40;19.00;99.60
947;DHT22;460;48.734;9.152;2022-07-24T02:55:08;19.00;99.60
947;DHT22;460;48.734;9.152;2022-07-24T02:57:35;18.90;99.90
947;DHT22;460;48.734;9.152;2022-07-24T03:00:04;18.80;99.90
947;DHT22;460;48.734;9.152;2022-07-24T03:02:32;18.80;99.90
947;DHT22;460;48.734;9.152;2022-07-24T03:05:01;18.80;99.90
947;DHT22;460;48.734;9.152;2022-07-24T03:07:28;18.70;99.90
947;DHT22;460;48.734;9.152;2022-07-24T03:09:55;18.70;99.90
947;DHT22;460;48.734;9.152;2022-07-24T03:12:22;18.80;99.90
947;DHT22;460;48.734;9.152;2022-07-24T03:14:49;18.80;99.90
947;DHT22;460;48.734;9.152;2022-07-24T03:17:16;18.70;99.90
947;DHT22;460;48.734;9.152;2022-07-24T03:19:43;18.60;99.90
947;DHT22;460;48.734;9.152;2022-07-24T03:22:11;18.60;99.90
947;DHT22;460;48.734;9.152;2022-07-24T03:24:38;18.60;99.90
947;DHT22;460;48.734;9.152;2022-07-24T03:27:08;18.50;99.90
947;DHT22;460;48.734;9.152;2022-07-24T03:29:35;18.50;99.90
947;DHT22;460;48.734;9.152;2022-07-24T03:32:02;18.50;99.90
947;DHT22;460;48.734;9.152;2022-07-24T03:34:29;18.60;99.90
947;DHT22;460;48.734;9.152;2022-07-24T03:36:57;18.60;99.90
947;DHT22;460;48.734;9.152;2022-07-24T03:39:25;18.60;99.90
947;DHT22;460;48.734;9.152;2022-07-24T03:41:52;18.60;99.90
947;DHT22;460;48.734;9.152;2022-07-24T03:44:19;18.60;99.90
947;DHT22;460;48.734;9.152;2022-07-24T03:46:46;18.60;99.90
947;DHT22;460;48.734;9.152;2022-07-24T03:49:13;18.50;99.90
947;DHT22;460;48.734;9.152;2022-07-24T03:51:40;18.50;99.90
947;DHT22;460;48.734;9.152;2022-07-24T03:54:06;18.50;99.90
947;DHT22;460;48.734;9.152;2022-07-24T03:56:35;18.50;99.90
947;DHT22;460;48.734;9.152;2022-07-24T03:59:02;18.40;99.90
947;DHT22;460;48.734;9.152;2022-07-24T04:01:29;18.40;99.90
947;DHT22;460;48.734;9.152;2022-07-24T04:03:55;18.40;99.90
947;DHT22;460;48.734;9.152;2022-07-24T04:06:23;18.40;99.90
947;DHT22;460;48.734;9.152;2022-07-24T04:08:50;18.40;99.90
947;DHT22;460;48.734;9.152;2022-07-24T04:11:17;18.50;99.90
947;DHT22;460;48.734;9.152;2022-07-24T04:13:45;18.50;99.90
947;DHT22;460;48.734;9.152;2022-07-24T04:16:12;18.40;99.90
947;DHT22;460;48.734;9.152;2022-07-24T04:18:39;18.40;99.90
947;DHT22;460;48.734;9.152;2022-07-24T04:21:07;18.30;99.90
947;DHT22;460;48.734;9.152;2022-07-24T04:23:34;18.40;99.90
947;DHT22;460;48.734;9.152;2022-07-24T04:26:01;18.50;99.90
947;DHT22;460;48.734;9.152;2022-07-24T04:28:29;18.40;99.90
947;DHT22;460;48.734;9.152;2022-07-24T04:30:57;18.40;99.90
947;DHT22;460;48.734;9.152;2022-07-24T04:33:24;18.40;99.90
947;DHT22;460;48.734;9.152;2022-07-24T04:35:51;18.40;99.90
947;DHT22;460;48.734;9.152;2022-07-24T04:38:18;18.50;99.90
947;DHT22;460;48.734;9.152;2022-07-24T04:40:45;18.50;99.90
947;DHT22;460;48.734;9.152;2022-07-24T04:43:12;18.50;99.90
947;DHT22;460;48.734;9.152;2022-07-24T04:45:39;18.50;99.90
947;DHT22;460;48.734;9.152;2022-07-24T04:48:07;18.60;99.90
947;DHT22;460;48.734;9.152;2022-07-24T04:50:34;18.60;99.90
947;DHT22;460;48.734;9.152;2022-07-24T04:53:01;18.70;99.90
947;DHT22;460;48.734;9.152;2022-07-24T04:55:28;18.70;99.90
947;DHT22;460;48.734;9.152;2022-07-24T04:57:57;18.80;99.90
947;DHT22;460;48.734;9.152;2022-07-24T05:00:24;18.80;99.90
947;DHT22;460;48.734;9.152;2022-07-24T05:02:51;18.90;99.90
947;DHT22;460;48.734;9.152;2022-07-24T05:05:19;19.10;99.90
947;DHT22;460;48.734;9.152;2022-07-24T05:07:46;19.20;99.90
947;DHT22;460;48.734;9.152;2022-07-24T05:10:15;19.30;99.90
947;DHT22;460;48.734;9.152;2022-07-24T05:12:42;19.50;99.90
947;DHT22;460;48.734;9.152;2022-07-24T05:15:10;19.50;99.90
947;DHT22;460;48.734;9.152;2022-07-24T05:17:37;19.70;99.90
947;DHT22;460;48.734;9.152;2022-07-24T05:20:05;19.80;99.90
947;DHT22;460;48.734;9.152;2022-07-24T05:22:34;19.90;99.90
947;DHT22;460;48.734;9.152;2022-07-24T05:25:01;20.00;99.90
947;DHT22;460;48.734;9.152;2022-07-24T05:27:28;20.10;99.10
947;DHT22;460;48.734;9.152;2022-07-24T05:29:55;20.10;98.90
947;DHT22;460;48.734;9.152;2022-07-24T05:32:22;20.20;98.70
947;DHT22;460;48.734;9.152;2022-07-24T05:34:49;20.30;98.80
947;DHT22;460;48.734;9.152;2022-07-24T05:37:15;20.40;98.70
947;DHT22;460;48.734;9.152;2022-07-24T05:39:44;20.50;98.70
947;DHT22;460;48.734;9.152;2022-07-24T05:42:11;20.60;98.00
947;DHT22;460;48.734;9.152;2022-07-24T05:44:41;20.60;97.90
947;DHT22;460;48.734;9.152;2022-07-24T05:47:08;20.80;97.60
947;DHT22;460;48.734;9.152;2022-07-24T05:49:35;20.80;97.50
947;DHT22;460;48.734;9.152;2022-07-24T05:52:02;20.90;97.80
947;DHT22;460;48.734;9.152;2022-07-24T05:54:31;20.90;97.30
947;DHT22;460;48.734;9.152;2022-07-24T05:56:59;20.90;97.80
947;DHT22;460;48.734;9.152;2022-07-24T05:59:26;21.00;97.50
947;DHT22;460;48.734;9.152;2022-07-24T06:01:53;21.10;97.40
947;DHT22;460;48.734;9.152;2022-07-24T06:04:20;21.30;97.20
947;DHT22;460;48.734;9.152;2022-07-24T06:06:50;21.30;96.70
947;DHT22;460;48.734;9.152;2022-07-24T06:09:17;21.40;96.90
947;DHT22;460;48.734;9.152;2022-07-24T06:11:44;21.50;96.80
947;DHT22;460;48.734;9.152;2022-07-24T06:14:12;21.60;96.50
947;DHT22;460;48.734;9.152;2022-07-24T06:16:39;21.70;96.60
947;DHT22;460;48.734;9.152;2022-07-24T06:19:06;21.70;95.60
947;DHT22;460;48.734;9.152;2022-07-24T06:21:32;21.50;94.30
947;DHT22;460;48.734;9.152;2022-07-24T06:23:59;21.80;93.80
947;DHT22;460;48.734;9.152;2022-07-24T06:26:26;21.80;93.50
947;DHT22;460;48.734;9.152;2022-07-24T06:28:53;21.80;94.40
947;DHT22;460;48.734;9.152;2022-07-24T06:31:21;21.70;94.80
947;DHT22;460;48.734;9.152;2022-07-24T06:33:49;21.80;94.20
947;DHT22;460;48.734;9.152;2022-07-24T06:36:16;21.80;94.70
947;DHT22;460;48.734;9.152;2022-07-24T06:38:43;21.80;94.60
947;DHT22;460;48.734;9.152;2022-07-24T06:41:09;22.00;93.40
947;DHT22;460;48.734;9.152;2022-07-24T06:43:36;22.10;93.30
947;DHT22;460;48.734;9.152;2022-07-24T06:46:03;22.20;93.10
947;DHT22;460;48.734;9.152;2022-07-24T06:48:32;22.30;92.90
947;DHT22;460;48.734;9.152;2022-07-24T06:50:59;22.50;92.50
947;DHT22;460;48.734;9.152;2022-07-24T06:53:27;22.60;92.10
947;DHT22;460;48.734;9.152;2022-07-24T06:55:54;22.70;92.60
947;DHT22;460;48.734;9.152;2022-07-24T06:58:21;22.80;91.20
947;DHT22;460;48.734;9.152;2022-07-24T07:00:49;22.90;91.30
947;DHT22;460;48.734;9.152;2022-07-24T07:03:18;23.00;91.70
947;DHT22;460;48.734;9.152;2022-07-24T07:05:52;23.10;91.10
947;DHT22;460;48.734;9.152;2022-07-24T07:08:19;23.20;90.80
947;DHT22;460;48.734;9.152;2022-07-24T07:10:46;23.40;90.00
947;DHT22;460;48.734;9.152;2022-07-24T07:13:21;23.50;90.80
947;DHT22;460;48.734;9.152;2022-07-24T07:15:50;23.60;90.50
947;DHT22;460;48.734;9.152;2022-07-24T07:18:17;23.60;90.80
947;DHT22;460;48.734;9.152;2022-07-24T07:20:44;23.70;86.80
947;DHT22;460;48.734;9.152;2022-07-24T07:23:15;23.80;89.10
947;DHT22;460;48.734;9.152;2022-07-24T07:25:42;23.90;85.90
947;DHT22;460;48.734;9.152;2022-07-24T07:28:09;23.90;87.70
947;DHT22;460;48.734;9.152;2022-07-24T07:30:36;24.10;84.90
947;DHT22;460;48.734;9.152;2022-07-24T07:33:03;24.20;85.50
947;DHT22;460;48.734;9.152;2022-07-24T07:35:29;24.40;83.30
947;DHT22;460;48.734;9.152;2022-07-24T07:37:56;24.40;84.10
947;DHT22;460;48.734;9.152;2022-07-24T07:40:26;24.40;84.00
947;DHT22;460;48.734;9.152;2022-07-24T07:42:52;24.50;84.90
947;DHT22;460;48.734;9.152;2022-07-24T07:45:19;24.60;83.20
947;DHT22;460;48.734;9.152;2022-07-24T07:47:46;24.70;84.30
947;DHT22;460;48.734;9.152;2022-07-24T07:50:13;24.80;83.90
947;DHT22;460;48.734;9.152;2022-07-24T07:52:40;25.00;82.80
947;DHT22;460;48.734;9.152;2022-07-24T07:55:08;25.00;83.10
947;DHT22;460;48.734;9.152;2022-07-24T07:57:36;25.10;82.00
947;DHT22;460;48.734;9.152;2022-07-24T08:00:07;25.10;80.30
947;DHT22;460;48.734;9.152;2022-07-24T08:02:35;25.20;77.80
947;DHT22;460;48.734;9.152;2022-07-24T08:05:02;25.10;77.80
947;DHT22;460;48.734;9.152;2022-07-24T08:07:29;25.20;78.00
947;DHT22;460;48.734;9.152;2022-07-24T08:09:56;25.30;77.40
947;DHT22;460;48.734;9.152;2022-07-24T08:12:23;25.30;79.00
947;DHT22;460;48.734;9.152;2022-07-24T08:15:23;25.60;78.00
947;DHT22;460;48.734;9.152;2022-07-24T08:17:51;25.70;76.40
947;DHT22;460;48.734;9.152;2022-07-24T08:20:19;25.80;77.10
947;DHT22;460;48.734;9.152;2022-07-24T08:22:49;25.90;76.40
947;DHT22;460;48.734;9.152;2022-07-24T08:25:16;26.00;74.70
947;DHT22;460;48.734;9.152;2022-07-24T08:27:43;25.90;76.20
947;DHT22;460;48.734;9.152;2022-07-24T08:30:11;26.00;75.10
947;DHT22;460;48.734;9.152;2022-07-24T08:32:39;26.10;75.80
947;DHT22;460;48.734;9.152;2022-07-24T08:35:07;26.20;73.50
947;DHT22;460;48.734;9.152;2022-07-24T08:37:35;26.40;74.00
947;DHT22;460;48.734;9.152;2022-07-24T08:40:04;26.50;74.00
947;DHT22;460;48.734;9.152;2022-07-24T08:42:31;26.50;72.20
947;DHT22;460;48.734;9.152;2022-07-24T08:44:58;26.30;71.60
947;DHT22;460;48.734;9.152;2022-07-24T08:47:25;26.10;73.70
947;DHT22;460;48.734;9.152;2022-07-24T08:49:55;26.20;75.50
947;DHT22;460;48.734;9.152;2022-07-24T08:52:25;26.40;71.90
947;DHT22;460;48.734;9.152;2022-07-24T08:54:52;26.50;72.10
947;DHT22;460;48.734;9.152;2022-07-24T08:57:20;26.70;72.00
947;DHT22;460;48.734;9.152;2022-07-24T08:59:47;26.90;72.30
947;DHT22;460;48.734;9.152;2022-07-24T09:02:14;27.00;69.70
947;DHT22;460;48.734;9.152;2022-07-24T09:04:43;27.10;71.30
947;DHT22;460;48.734;9.152;2022-07-24T09:07:12;27.30;70.70
947;DHT22;460;48.734;9.152;2022-07-24T09:09:41;27.40;68.70
947;DHT22;460;48.734;9.152;2022-07-24T09:12:11;27.50;68.00
947;DHT22;460;48.734;9.152;2022-07-24T09:14:40;27.40;65.20
947;DHT22;460;48.734;9.152;2022-07-24T09:17:09;27.30;67.90
947;DHT22;460;48.734;9.152;2022-07-24T09:19:46;27.00;67.30
947;DHT22;460;48.734;9.152;2022-07-24T09:22:34;26.90;67.00
947;DHT22;460;48.734;9.152;2022-07-24T09:25:09;27.10;70.00
947;DHT22;460;48.734;9.152;2022-07-24T09:27:38;27.60;68.40
947;DHT22;460;48.734;9.152;2022-07-24T09:30:06;27.80;66.60
947;DHT22;460;48.734;9.152;2022-07-24T09:32:34;28.30;66.80
947;DHT22;460;48.734;9.152;2022-07-24T09:35:02;28.50;63.60
947;DHT22;460;48.734;9.152;2022-07-24T09:37:29;28.70;61.60
947;DHT22;460;48.734;9.152;2022-07-24T09:40:08;28.80;61.90
947;DHT22;460;48.734;9.152;2022-07-24T09:42:36;28.90;61.70
947;DHT22;460;48.734;9.152;2022-07-24T09:45:07;29.10;59.60
947;DHT22;460;48.734;9.152;2022-07-24T09:47:37;29.10;58.70
947;DHT22;460;48.734;9.152;2022-07-24T09:50:13;28.90;58.70
947;DHT22;460;48.734;9.152;2022-07-24T09:52:41;28.80;59.30
947;DHT22;460;48.734;9.152;2022-07-24T09:55:21;28.60;58.30
947;DHT22;460;48.734;9.152;2022-07-24T09:57:49;28.40;59.10
947;DHT22;460;48.734;9.152;2022-07-24T10:00:16;27.90;60.60
947;DHT22;460;48.734;9.152;2022-07-24T10:02:44;27.30;64.10
947;DHT22;460;48.734;9.152;2022-07-24T10:05:13;27.20;64.00
947;DHT22;460;48.734;9.152;2022-07-24T10:07:41;27.30;65.80
947;DHT22;460;48.734;9.152;2022-07-24T10:10:11;27.60;66.50
947;DHT22;460;48.734;9.152;2022-07-24T10:12:40;28.00;64.10
947;DHT22;460;48.734;9.152;2022-07-24T10:15:22;28.30;63.70
947;DHT22;460;48.734;9.152;2022-07-24T10:18:14;27.80;61.70
947;DHT22;460;48.734;9.152;2022-07-24T10:20:43;27.60;65.60
947;DHT22;460;48.734;9.152;2022-07-24T10:23:20;27.30;62.90
947;DHT22;460;48.734;9.152;2022-07-24T10:25:54;27.20;62.70
947;DHT22;460;48.734;9.152;2022-07-24T10:28:36;27.10;63.10
947;DHT22;460;48.734;9.152;2022-07-24T10:31:04;27.00;65.00
947;DHT22;460;48.734;9.152;2022-07-24T10:33:32;27.00;67.60
947;DHT22;460;48.734;9.152;2022-07-24T10:36:02;27.00;63.60
947;DHT22;460;48.734;9.152;2022-07-24T10:38:35;26.90;62.90
947;DHT22;460;48.734;9.152;2022-07-24T10:41:11;27.00;61.60
947;DHT22;460;48.734;9.152;2022-07-24T10:44:11;27.40;64.40
947;DHT22;460;48.734;9.152;2022-07-24T10:46:57;27.60;63.20
947;DHT22;460;48.734;9.152;2022-07-24T10:49:43;27.90;65.10
947;DHT22;460;48.734;9.152;2022-07-24T10:52:11;28.40;63.90
947;DHT22;460;48.734;9.152;2022-07-24T10:54:39;28.70;59.30
947;DHT22;460;48.734;9.152;2022-07-24T10:57:06;29.30;60.10
947;DHT22;460;48.734;9.152;2022-07-24T10:59:36;29.40;58.80
947;DHT22;460;48.734;9.152;2022-07-24T11:02:26;29.80;59.70
947;DHT22;460;48.734;9.152;2022-07-24T11:05:25;30.10;56.30
947;DHT22;460;48.734;9.152;2022-07-24T11:11:11;30.20;55.20
947;DHT22;460;48.734;9.152;2022-07-24T11:13:49;30.80;60.50
947;DHT22;460;48.734;9.152;2022-07-24T11:16:29;31.10;56.90
947;DHT22;460;48.734;9.152;2022-07-24T11:19:28;31.50;55.90
947;DHT22;460;48.734;9.152;2022-07-24T11:22:05;31.50;54.20
947;DHT22;460;48.734;9.152;2022-07-24T11:24:33;32.00;54.40
947;DHT22;460;48.734;9.152;2022-07-24T11:27:04;32.20;52.70
947;DHT22;460;48.734;9.152;2022-07-24T11:29:33;31.60;54.60
947;DHT22;460;48.734;9.152;2022-07-24T11:32:04;31.90;53.40
947;DHT22;460;48.734;9.152;2022-07-24T11:34:32;32.20;54.60
947;DHT22;460;48.734;9.152;2022-07-24T11:37:00;32.50;53.10
947;DHT22;460;48.734;9.152;2022-07-24T11:39:29;32.90;51.70
947;DHT22;460;48.734;9.152;2022-07-24T11:41:57;33.20;52.80
947;DHT22;460;48.734;9.152;2022-07-24T11:44:26;33.10;52.70
947;DHT22;460;48.734;9.152;2022-07-24T11:46:54;33.30;50.80
947;DHT22;460;48.734;9.152;2022-07-24T11:49:25;32.70;52.90
947;DHT22;460;48.734;9.152;2022-07-24T11:51:53;32.20;52.20
947;DHT22;460;48.734;9.152;2022-07-24T11:54:23;31.60;52.30
947;DHT22;460;48.734;9.152;2022-07-24T11:56:50;31.10;54.80
947;DHT22;460;48.734;9.152;2022-07-24T11:59:24;30.80;54.60
947;DHT22;460;48.734;9.152;2022-07-24T12:01:55;30.40;55.40
947;DHT22;460;48.734;9.152;2022-07-24T12:04:24;30.40;57.20
947;DHT22;460;48.734;9.152;2022-07-24T12:06:51;31.50;54.30
947;DHT22;460;48.734;9.152;2022-07-24T12:09:18;33.00;51.50
947;DHT22;460;48.734;9.152;2022-07-24T12:11:45;34.20;50.90
947;DHT22;460;48.734;9.152;2022-07-24T12:14:16;35.50;49.70
947;DHT22;460;48.734;9.152;2022-07-24T12:16:44;36.30;46.80
947;DHT22;460;48.734;9.152;2022-07-24T12:19:15;36.90;46.60
947;DHT22;460;48.734;9.152;2022-07-24T12:21:45;36.90;45.50
947;DHT22;460;48.734;9.152;2022-07-24T12:24:13;36.50;46.00
947;DHT22;460;48.734;9.152;2022-07-24T12:26:54;36.90;46.60
947;DHT22;460;48.734;9.152;2022-07-24T12:29:22;36.70;45.10
947;DHT22;460;48.734;9.152;2022-07-24T12:31:52;37.10;45.70
947;DHT22;460;48.734;9.152;2022-07-24T12:34:20;38.00;44.90
947;DHT22;460;48.734;9.152;2022-07-24T12:36:48;38.80;43.50
947;DHT22;460;48.734;9.152;2022-07-24T12:39:15;38.20;41.70
947;DHT22;460;48.734;9.152;2022-07-24T12:41:44;38.40;42.00
947;DHT22;460;48.734;9.152;2022-07-24T12:44:13;36.70;41.20
947;DHT22;460;48.734;9.152;2022-07-24T12:46:41;36.50;42.20
947;DHT22;460;48.734;9.152;2022-07-24T12:49:10;37.20;44.10
947;DHT22;460;48.734;9.152;2022-07-24T12:51:45;38.30;41.90
947;DHT22;460;48.734;9.152;2022-07-24T12:54:17;39.20;40.50
947;DHT22;460;48.734;9.152;2022-07-24T12:56:45;38.90;40.00
947;DHT22;460;48.734;9.152;2022-07-24T12:59:22;38.10;40.40
947;DHT22;460;48.734;9.152;2022-07-24T13:01:51;37.70;39.90
947;DHT22;460;48.734;9.152;2022-07-24T13:04:20;37.50;40.80
947;DHT22;460;48.734;9.152;2022-07-24T13:06:48;38.50;41.70
947;DHT22;460;48.734;9.152;2022-07-24T13:09:18;38.90;40.70
947;DHT22;460;48.734;9.152;2022-07-24T13:11:47;39.80;41.00
947;DHT22;460;48.734;9.152;2022-07-24T13:14:16;39.70;37.80
947;DHT22;460;48.734;9.152;2022-07-24T13:16:45;39.90;39.00
947;DHT22;460;48.734;9.152;2022-07-24T13:19:13;39.20;39.20
947;DHT22;460;48.734;9.152;2022-07-24T13:21:40;39.00;39.10
947;DHT22;460;48.734;9.152;2022-07-24T13:24:09;40.10;38.50
947;DHT22;460;48.734;9.152;2022-07-24T13:26:39;41.00;37.00
947;DHT22;460;48.734;9.152;2022-07-24T13:29:07;41.60;37.10
947;DHT22;460;48.734;9.152;2022-07-24T13:31:34;42.20;36.20
947;DHT22;460;48.734;9.152;2022-07-24T13:34:02;41.80;37.50
947;DHT22;460;48.734;9.152;2022-07-24T13:36:29;41.80;35.30
947;DHT22;460;48.734;9.152;2022-07-24T13:38:56;41.80;35.20
947;DHT22;460;48.734;9.152;2022-07-24T13:41:23;41.80;35.00
947;DHT22;460;48.734;9.152;2022-07-24T13:43:55;41.60;33.50
947;DHT22;460;48.734;9.152;2022-07-24T13:46:22;40.40;34.70
947;DHT22;460;48.734;9.152;2022-07-24T13:49:00;40.60;35.80
947;DHT22;460;48.734;9.152;2022-07-24T13:51:28;41.20;33.90
947;DHT22;460;48.734;9.152;2022-07-24T13:53:54;41.30;34.80
947;DHT22;460;48.734;9.152;2022-07-24T13:56:44;41.20;36.70
947;DHT22;460;48.734;9.152;2022-07-24T13:59:29;41.60;34.60
947;DHT22;460;48.734;9.152;2022-07-24T14:01:56;40.50;34.40
947;DHT22;460;48.734;9.152;2022-07-24T14:04:23;40.30;37.50
947;DHT22;460;48.734;9.152;2022-07-24T14:06:50;39.40;36.60
947;DHT22;460;48.734;9.152;2022-07-24T14:09:17;38.40;39.50
947;DHT22;460;48.734;9.152;2022-07-24T14:11:44;38.10;36.70
947;DHT22;460;48.734;9.152;2022-07-24T14:14:11;37.80;38.70
947;DHT22;460;48.734;9.152;2022-07-24T14:16:39;36.80;38.10
947;DHT22;460;48.734;9.152;2022-07-24T14:19:06;35.80;38.70
947;DHT22;460;48.734;9.152;2022-07-24T14:21:33;35.40;38.90
947;DHT22;460;48.734;9.152;2022-07-24T14:24:00;36.70;40.50
947;DHT22;460;48.734;9.152;2022-07-24T14:26:27;37.50;39.50
947;DHT22;460;48.734;9.152;2022-07-24T14:28:53;38.00;38.80
947;DHT22;460;48.734;9.152;2022-07-24T14:31:21;38.20;37.70
947;DHT22;460;48.734;9.152;2022-07-24T14:33:49;38.80;37.40
947;DHT22;460;48.734;9.152;2022-07-24T14:36:16;38.60;37.30
947;DHT22;460;48.734;9.152;2022-07-24T14:38:43;37.80;40.10
947;DHT22;460;48.734;9.152;2022-07-24T14:41:09;37.40;37.60
947;DHT22;460;48.734;9.152;2022-07-24T14:43:36;37.70;38.30
947;DHT22;460;48.734;9.152;2022-07-24T14:46:03;37.70;37.40
947;DHT22;460;48.734;9.152;2022-07-24T14:48:30;37.70;39.90
947;DHT22;460;48.734;9.152;2022-07-24T14:50:58;37.70;39.40
947;DHT22;460;48.734;9.152;2022-07-24T14:53:25;38.10;37.80
947;DHT22;460;48.734;9.152;2022-07-24T14:55:52;38.40;37.60
947;DHT22;460;48.734;9.152;2022-07-24T14:58:19;38.30;37.20
947;DHT22;460;48.734;9.152;2022-07-24T15:00:46;38.20;36.20
947;DHT22;460;48.734;9.152;2022-07-24T15:03:14;38.10;37.00
947;DHT22;460;48.734;9.152;2022-07-24T15:05:41;38.30;36.00
947;DHT22;460;48.734;9.152;2022-07-24T15:08:09;38.40;36.40
947;DHT22;460;48.734;9.152;2022-07-24T15:10:36;38.20;37.10
947;DHT22;460;48.734;9.152;2022-07-24T15:13:03;37.50;35.70
947;DHT22;460;48.734;9.152;2022-07-24T15:15:30;37.20;38.40
947;DHT22;460;48.734;9.152;2022-07-24T15:17:57;36.80;38.90
947;DHT22;460;48.734;9.152;2022-07-24T15:20:24;36.20;39.60
947;DHT22;460;48.734;9.152;2022-07-24T15:25:19;35.30;39.10
947;DHT22;460;48.734;9.152;2022-07-24T15:27:46;34.90;41.00
947;DHT22;460;48.734;9.152;2022-07-24T15:30:16;34.80;40.70
947;DHT22;460;48.734;9.152;2022-07-24T15:32:43;34.40;39.60
947;DHT22;460;48.734;9.152;2022-07-24T15:35:11;34.20;41.20
947;DHT22;460;48.734;9.152;2022-07-24T15:37:38;33.80;40.60
947;DHT22;460;48.734;9.152;2022-07-24T15:40:06;33.50;41.90
947;DHT22;460;48.734;9.152;2022-07-24T15:42:35;33.50;41.90
947;DHT22;460;48.734;9.152;2022-07-24T15:45:02;33.30;43.00
947;DHT22;460;48.734;9.152;2022-07-24T15:47:29;32.90;43.90
947;DHT22;460;48.734;9.152;2022-07-24T15:49:59;32.50;43.00
947;DHT22;460;48.734;9.152;2022-07-24T15:52:25;32.30;43.30
947;DHT22;460;48.734;9.152;2022-07-24T15:54:52;32.00;44.10
947;DHT22;460;48.734;9.152;2022-07-24T15:57:19;31.50;42.90
947;DHT22;460;48.734;9.152;2022-07-24T15:59:47;31.70;44.60
947;DHT22;460;48.734;9.152;2022-07-24T16:02:14;31.60;45.50
947;DHT22;460;48.734;9.152;2022-07-24T16:04:41;31.30;44.10
947;DHT22;460;48.734;9.152;2022-07-24T16:07:08;31.10;44.70
947;DHT22;460;48.734;9.152;2022-07-24T16:09:35;31.20;43.80
947;DHT22;460;48.734;9.152;2022-07-24T16:12:02;31.40;44.10
947;DHT22;460;48.734;9.152;2022-07-24T16:14:36;31.20;44.90
947;DHT22;460;48.734;9.152;2022-07-24T16:17:06;31.40;44.40
947;DHT22;460;48.734;9.152;2022-07-24T16:19:34;31.40;44.70
947;DHT22;460;48.734;9.152;2022-07-24T16:22:01;31.20;44.60
947;DHT22;460;48.734;9.152;2022-07-24T16:24:29;31.10;46.40
947;DHT22;460;48.734;9.152;2022-07-24T16:26:56;31.10;47.80
947;DHT22;460;48.734;9.152;2022-07-24T16:29:23;31.10;47.00
947;DHT22;460;48.734;9.152;2022-07-24T16:31:50;31.20;45.80
947;DHT22;460;48.734;9.152;2022-07-24T16:34:18;31.00;44.70
947;DHT22;460;48.734;9.152;2022-07-24T16:36:45;30.90;45.10
947;DHT22;460;48.734;9.152;2022-07-24T16:39:12;30.90;45.90
947;DHT22;460;48.734;9.152;2022-07-24T16:41:39;30.90;45.40
947;DHT22;460;48.734;9.152;2022-07-24T16:44:06;31.00;46.00
947;DHT22;460;48.734;9.152;2022-07-24T16:46:33;30.90;47.70
947;DHT22;460;48.734;9.152;2022-07-24T16:49:00;30.60;44.90
947;DHT22;460;48.734;9.152;2022-07-24T16:51:29;30.50;46.10